Terminal Aerodrome Forecast
Issued by NWS Louisville, KY

Home | Current Version | Previous Version | Text Only | Print | Product List | Glossary On
Versions: 1 2 3 4 5 6 7 8 9 10 11 12 13 14
000
FTUS43 KLMK 240520
TAFBWG
TAF
KBWG 240520Z 2406/2506 VRB04KT P6SM OVC100
     FM241000 VRB03KT P6SM VCSH OVC050
     FM241200 VRB03KT 4SM -SHRA BR OVC015
     FM241600 VRB04KT 4SM SHRA BR OVC009
     FM250000 27009KT P6SM VCSH OVC025=

USA.gov is the U.S. government's official web portal to all federal, state and local government web resources and services.